Time;durP1;ratioP1;P1;durP2;ratioP2;P2;SDS_P1;SDS_P2;PMS_P1;PMS_P2;Temp;Humidity;BMP_temperature;BMP_pressure;BME280_temperature;BME280_humidity;BME280_pressure;Samples;Min_cycle;Max_cycle;Signal;HPM_P1;HPM_P2
2023/05/18 00:01:42;;;;;;;6.37;2.70;;;;;;;7.33;75.01;101381.19;5046207;28;20203;-67
2023/05/18 00:04:09;;;;;;;6.87;2.50;;;;;;;7.12;77.16;101375.91;5048886;28;20224;-68
2023/05/18 00:06:36;;;;;;;6.57;2.67;;;;;;;7.01;77.24;101377.19;5052638;28;20214;-68
2023/05/18 00:09:02;;;;;;;4.43;2.27;;;;;;;6.82;79.13;101376.38;5052715;28;20216;-67
2023/05/18 00:11:28;;;;;;;5.93;2.70;;;;;;;6.87;80.27;101374.84;5052261;28;20291;-67
2023/05/18 00:13:55;;;;;;;12.90;2.90;;;;;;;6.69;81.79;101378.38;5067485;28;20580;-67
2023/05/18 00:16:21;;;;;;;7.03;2.60;;;;;;;6.59;82.95;101372.72;5063512;28;20633;-67
2023/05/18 00:18:48;;;;;;;7.70;2.60;;;;;;;6.61;80.84;101370.16;5072239;28;20259;-67
2023/05/18 00:21:15;;;;;;;8.93;2.80;;;;;;;6.54;81.72;101368.97;5072165;28;20196;-68
2023/05/18 00:23:48;;;;;;;5.83;2.60;;;;;;;6.44;82.40;101368.50;5067795;28;20198;-67
2023/05/18 00:26:14;;;;;;;6.37;2.67;;;;;;;6.31;83.80;101366.13;5069220;28;20225;-68
2023/05/18 00:28:41;;;;;;;10.80;2.90;;;;;;;6.22;85.65;101363.97;5068341;28;20219;-68
2023/05/18 00:31:07;;;;;;;4.00;2.20;;;;;;;6.15;86.25;101368.03;5049470;28;20207;-67
2023/05/18 00:33:33;;;;;;;5.40;2.73;;;;;;;6.23;85.02;101360.50;5064119;28;20287;-67
2023/05/18 00:36:00;;;;;;;5.50;2.70;;;;;;;6.33;84.44;101367.09;5071795;28;20224;-68
2023/05/18 00:38:26;;;;;;;7.37;2.37;;;;;;;6.28;84.32;101365.16;5071212;28;20221;-67
2023/05/18 00:40:53;;;;;;;6.50;2.33;;;;;;;6.42;84.42;101367.53;5067464;28;20204;-67
2023/05/18 00:43:19;;;;;;;8.10;2.33;;;;;;;6.43;84.00;101364.97;5059652;28;20579;-68
2023/05/18 00:45:45;;;;;;;10.00;2.80;;;;;;;6.65;83.94;101358.03;5028504;28;20208;-67
2023/05/18 00:48:12;;;;;;;7.40;2.47;;;;;;;6.79;81.77;101370.06;5049928;28;20209;-67
2023/05/18 00:50:39;;;;;;;5.23;2.50;;;;;;;6.77;81.59;101369.09;5052260;28;20509;-67
2023/05/18 00:53:06;;;;;;;4.03;1.90;;;;;;;6.75;80.11;101361.13;5052702;28;20290;-67
2023/05/18 00:55:33;;;;;;;4.63;2.13;;;;;;;6.68;81.35;101366.94;5041414;28;20446;-68
2023/05/18 00:58:01;;;;;;;7.77;2.30;;;;;;;6.59;83.59;101359.56;5049303;28;20570;-67
2023/05/18 01:00:27;;;;;;;5.97;2.60;;;;;;;6.49;83.40;101362.63;5052234;28;20365;-67
2023/05/18 01:02:54;;;;;;;8.83;2.60;;;;;;;6.42;83.26;101365.81;5048437;28;20705;-68
2023/05/18 01:05:21;;;;;;;6.13;2.13;;;;;;;6.63;79.59;101352.69;5047036;28;20200;-67
2023/05/18 01:07:49;;;;;;;4.13;2.10;;;;;;;6.64;79.57;101356.22;5053311;28;20242;-67
2023/05/18 01:10:17;;;;;;;7.30;2.07;;;;;;;6.71;78.99;101353.94;5055745;28;20235;-68
2023/05/18 01:12:55;;;;;;;4.87;2.13;;;;;;;6.71;79.14;101358.28;5055893;28;20690;-67
2023/05/18 01:15:32;;;;;;;7.63;2.27;;;;;;;6.80;78.17;101359.59;5058659;28;20204;-67
2023/05/18 01:18:14;;;;;;;6.60;2.37;;;;;;;6.96;78.29;101363.81;5061346;28;20211;-68
2023/05/18 01:20:48;;;;;;;4.27;2.40;;;;;;;6.80;79.60;101348.16;5047571;28;20241;-67
2023/05/18 01:23:41;;;;;;;7.33;2.37;;;;;;;6.57;80.94;101345.44;5052756;28;20705;-68
2023/05/18 01:26:16;;;;;;;6.63;2.10;;;;;;;6.54;82.79;101349.66;5056400;28;20255;-68
2023/05/18 01:28:45;;;;;;;4.93;2.33;;;;;;;6.34;83.30;101358.34;5048038;28;20234;-69
2023/05/18 01:31:14;;;;;;;7.97;2.43;;;;;;;6.21;84.22;101349.00;5051562;28;20212;-68
2023/05/18 01:33:41;;;;;;;5.70;2.40;;;;;;;5.96;85.83;101361.00;5054804;28;20190;-69
2023/05/18 01:36:09;;;;;;;5.97;2.67;;;;;;;5.75;88.23;101349.44;5049945;28;20742;-68
2023/05/18 01:38:37;;;;;;;4.93;2.10;;;;;;;5.68;89.38;101360.50;5058470;28;20186;-69
2023/05/18 01:41:23;;;;;;;3.70;2.27;;;;;;;5.54;90.10;101365.06;5048377;28;20565;-68
2023/05/18 01:44:20;;;;;;;5.33;2.13;;;;;;;5.44;89.80;101360.19;5051125;28;20862;-69
2023/05/18 01:46:58;;;;;;;5.13;2.73;;;;;;;5.38;90.54;101362.50;5048924;28;20227;-68
2023/05/18 01:50:03;;;;;;;4.80;2.20;;;;;;;5.30;91.65;101358.59;5047300;28;20210;-68
2023/05/18 01:52:43;;;;;;;6.47;2.60;;;;;;;5.16;92.06;101362.25;5048156;28;20236;-68
2023/05/18 01:55:13;;;;;;;6.60;2.50;;;;;;;5.07;93.31;101365.31;5052877;28;20285;-69
2023/05/18 01:57:43;;;;;;;7.23;2.70;;;;;;;5.05;95.22;101364.34;5045949;28;20207;-67
2023/05/18 02:00:11;;;;;;;4.50;2.13;;;;;;;4.97;95.40;101366.56;5049404;28;20230;-69
2023/05/18 02:02:38;;;;;;;5.13;2.40;;;;;;;4.84;95.66;101358.91;5047476;28;20616;-69
2023/05/18 02:05:11;;;;;;;3.50;2.20;;;;;;;4.78;96.91;101358.56;5049840;28;20208;-68
2023/05/18 02:07:38;;;;;;;5.40;2.30;;;;;;;4.76;98.68;101356.69;5057687;28;20226;-69
2023/05/18 02:10:05;;;;;;;4.93;2.47;;;;;;;4.82;99.48;101359.66;5050511;28;20672;-69
2023/05/18 02:12:34;;;;;;;6.70;3.03;;;;;;;4.74;99.17;101356.59;5049048;28;20198;-67
2023/05/18 02:15:04;;;;;;;6.37;2.70;;;;;;;4.74;99.79;101356.59;5052816;28;20206;-67
2023/05/18 02:17:37;;;;;;;5.73;2.30;;;;;;;4.70;100.00;101352.00;5047854;28;20307;-67
2023/05/18 02:20:08;;;;;;;6.10;2.60;;;;;;;4.70;100.00;101354.63;5047916;28;20195;-67
2023/05/18 02:22:35;;;;;;;5.03;1.97;;;;;;;4.59;100.00;101359.31;5029123;28;20205;-66
2023/05/18 02:25:03;;;;;;;9.07;2.40;;;;;;;4.50;100.00;101350.06;5045596;28;20679;-66
2023/05/18 02:27:31;;;;;;;8.07;2.73;;;;;;;4.43;100.00;101361.06;5045259;28;20211;-67
2023/05/18 02:29:58;;;;;;;5.07;2.33;;;;;;;4.35;100.00;101356.28;5055425;28;20190;-68
2023/05/18 02:32:24;;;;;;;6.37;2.60;;;;;;;4.43;100.00;101347.97;5050704;28;20198;-69
2023/05/18 02:34:52;;;;;;;8.90;2.73;;;;;;;4.64;100.00;101352.59;5046597;28;20748;-69
2023/05/18 02:37:18;;;;;;;5.90;2.50;;;;;;;4.61;100.00;101355.06;5057144;28;20217;-69
2023/05/18 02:39:45;;;;;;;6.63;2.70;;;;;;;4.55;100.00;101345.97;5064653;28;20226;-69
2023/05/18 02:42:12;;;;;;;5.17;2.60;;;;;;;4.52;100.00;101345.81;5068840;28;20200;-68
2023/05/18 02:44:38;;;;;;;4.60;2.57;;;;;;;4.57;100.00;101346.94;5065177;28;20199;-69
2023/05/18 02:47:05;;;;;;;4.53;2.47;;;;;;;4.49;100.00;101349.19;5067549;28;20226;-69
2023/05/18 02:49:32;;;;;;;6.73;2.57;;;;;;;4.42;100.00;101351.41;5065385;28;20295;-69
2023/05/18 02:51:58;;;;;;;7.17;2.53;;;;;;;4.37;100.00;101344.16;5068178;28;20202;-69
2023/05/18 02:54:25;;;;;;;4.23;2.30;;;;;;;4.34;100.00;101346.63;5065398;28;20207;-68
2023/05/18 02:56:55;;;;;;;7.20;2.60;;;;;;;4.27;100.00;101346.22;5063017;28;20259;-69
2023/05/18 02:59:22;;;;;;;5.30;2.20;;;;;;;4.20;100.00;101351.94;5066661;28;20927;-68
2023/05/18 03:01:48;;;;;;;6.37;2.67;;;;;;;4.13;100.00;101350.72;5065478;28;20228;-69
2023/05/18 03:04:15;;;;;;;4.43;2.23;;;;;;;4.07;100.00;101360.88;5063476;28;20194;-68
2023/05/18 03:06:45;;;;;;;8.37;2.57;;;;;;;4.00;100.00;101358.72;5050040;28;20214;-69
2023/05/18 03:09:12;;;;;;;2.70;2.20;;;;;;;3.97;100.00;101355.91;5053373;28;20226;-68
2023/05/18 03:11:38;;;;;;;3.43;2.40;;;;;;;3.98;100.00;101356.00;5046282;28;20199;-69
2023/05/18 03:14:04;;;;;;;7.13;2.70;;;;;;;3.98;100.00;101356.00;5053358;28;20293;-69
2023/05/18 03:16:31;;;;;;;4.33;2.70;;;;;;;3.96;100.00;101356.75;5033911;28;20216;-69
2023/05/18 03:18:57;;;;;;;5.47;2.47;;;;;;;3.90;100.00;101359.94;5046960;28;20201;-69
2023/05/18 03:21:24;;;;;;;3.67;2.47;;;;;;;3.96;100.00;101361.97;5054837;28;20202;-69
2023/05/18 03:23:51;;;;;;;5.93;2.53;;;;;;;3.93;100.00;101365.34;5048548;28;20246;-69
2023/05/18 03:26:17;;;;;;;4.23;2.60;;;;;;;3.90;100.00;101359.94;5046015;28;20478;-69
2023/05/18 03:28:44;;;;;;;6.03;2.53;;;;;;;3.93;100.00;101356.56;5046829;28;20724;-69
2023/05/18 03:31:10;;;;;;;9.30;2.70;;;;;;;4.14;100.00;101360.38;5047437;28;20203;-68
2023/05/18 03:33:36;;;;;;;7.47;2.53;;;;;;;4.22;100.00;101366.94;5044510;28;20674;-69
2023/05/18 03:36:03;;;;;;;5.80;2.80;;;;;;;4.18;100.00;101358.84;5048062;28;20218;-69
2023/05/18 03:38:30;;;;;;;5.50;2.80;;;;;;;4.32;100.00;101357.84;5046732;28;20282;-69
2023/05/18 03:40:56;;;;;;;11.80;3.40;;;;;;;4.30;100.00;101363.00;5050327;28;20227;-69
2023/05/18 03:43:24;;;;;;;6.60;3.00;;;;;;;4.28;100.00;101355.88;5048029;28;20291;-69
2023/05/18 03:45:51;;;;;;;5.80;2.37;;;;;;;4.26;100.00;101368.91;5051666;28;20217;-69
2023/05/18 03:48:18;;;;;;;4.53;2.57;;;;;;;4.21;100.00;101362.53;5050270;28;20226;-69
2023/05/18 03:50:44;;;;;;;5.80;2.93;;;;;;;4.19;100.00;101371.13;5048993;28;20195;-69
2023/05/18 03:53:12;;;;;;;6.93;3.00;;;;;;;4.25;100.00;101371.44;5037505;28;20558;-69
2023/05/18 03:55:42;;;;;;;6.37;2.87;;;;;;;4.28;100.00;101362.03;5050242;28;20204;-69
2023/05/18 03:58:08;;;;;;;9.33;3.00;;;;;;;4.48;100.00;101365.75;5050648;28;20193;-68
2023/05/18 04:00:34;;;;;;;5.30;2.83;;;;;;;4.49;100.00;101367.53;5050914;28;20592;-69
2023/05/18 04:03:02;;;;;;;6.87;2.70;;;;;;;4.43;100.00;101369.84;5051358;28;20240;-69
2023/05/18 04:05:29;;;;;;;8.67;3.30;;;;;;;4.41;100.00;101374.09;5058157;28;20286;-68
2023/05/18 04:07:56;;;;;;;4.33;2.43;;;;;;;4.43;100.00;101369.84;5062172;28;20697;-69
2023/05/18 04:10:22;;;;;;;5.67;2.70;;;;;;;4.51;100.00;101372.88;5056781;28;20633;-69
2023/05/18 04:12:49;;;;;;;8.00;2.90;;;;;;;4.52;100.00;101369.41;5049697;28;20288;-69
2023/05/18 04:15:15;;;;;;;5.60;2.80;;;;;;;4.54;100.00;101373.94;5056252;28;20198;-69
2023/05/18 04:17:45;;;;;;;7.50;2.97;;;;;;;4.60;100.00;101382.13;5057345;28;20275;-68
2023/05/18 04:20:13;;;;;;;5.33;2.80;;;;;;;4.65;100.00;101380.63;5068193;28;20282;-69
2023/05/18 04:22:45;;;;;;;7.53;3.30;;;;;;;4.75;100.00;101387.25;5053690;28;20194;-69
2023/05/18 04:25:15;;;;;;;5.43;2.77;;;;;;;4.80;100.00;101377.91;5064435;28;20201;-69
2023/05/18 04:27:44;;;;;;;9.20;3.20;;;;;;;4.91;100.00;101383.72;5050366;28;20276;-70
2023/05/18 04:30:11;;;;;;;8.83;3.10;;;;;;;4.97;100.00;101391.91;5049550;28;20261;-70
2023/05/18 04:32:41;;;;;;;5.77;3.00;;;;;;;5.08;100.00;101382.88;5050739;28;20214;-69
2023/05/18 04:35:10;;;;;;;5.83;2.90;;;;;;;5.16;100.00;101389.41;5047736;28;20200;-69
2023/05/18 04:37:39;;;;;;;5.87;3.33;;;;;;;5.23;100.00;101391.53;5067346;28;20776;-69
2023/05/18 04:40:12;;;;;;;4.63;2.90;;;;;;;5.29;100.00;101390.94;5059048;28;20205;-68
2023/05/18 04:42:44;;;;;;;10.70;3.47;;;;;;;5.41;100.00;101395.91;5068895;28;20222;-69
2023/05/18 04:45:14;;;;;;;4.70;2.50;;;;;;;5.54;99.99;101393.06;5071445;28;20198;-69
2023/05/18 04:47:41;;;;;;;10.23;2.73;;;;;;;5.82;96.04;101390.97;5072224;28;20233;-67
2023/05/18 04:50:08;;;;;;;7.90;2.87;;;;;;;5.91;95.96;101388.81;5064242;28;20493;-67
2023/05/18 04:52:35;;;;;;;7.80;3.13;;;;;;;6.08;94.29;101384.38;5067485;28;20292;-66
2023/05/18 04:55:02;;;;;;;6.23;2.70;;;;;;;6.21;93.81;101388.47;5064861;28;20190;-67
2023/05/18 04:57:28;;;;;;;7.90;2.77;;;;;;;6.34;92.69;101389.94;5069638;28;20702;-67
2023/05/18 04:59:55;;;;;;;4.43;2.77;;;;;;;6.44;92.06;101387.81;5070731;28;20595;-67
2023/05/18 05:02:21;;;;;;;8.03;2.83;;;;;;;6.53;92.06;101384.69;5066766;28;20278;-67
2023/05/18 05:04:50;;;;;;;6.63;3.00;;;;;;;6.67;90.91;101390.56;5065836;28;20708;-66
2023/05/18 05:07:16;;;;;;;7.23;3.00;;;;;;;6.74;90.76;101383.00;5051154;28;20313;-67
2023/05/18 05:09:43;;;;;;;7.87;2.93;;;;;;;6.88;90.72;101388.91;5049232;28;20233;-67
2023/05/18 05:12:09;;;;;;;7.07;3.10;;;;;;;6.97;90.37;101389.31;5048939;28;20239;-66
2023/05/18 05:14:36;;;;;;;4.37;2.70;;;;;;;7.02;90.63;101392.16;5048592;28;20671;-66
2023/05/18 05:17:02;;;;;;;3.93;2.60;;;;;;;7.12;89.57;101394.34;5055244;28;20223;-67
2023/05/18 05:19:28;;;;;;;3.90;2.70;;;;;;;7.25;87.64;101394.06;5047818;28;20198;-67
2023/05/18 05:21:55;;;;;;;4.50;2.50;;;;;;;7.37;87.28;101391.94;5047364;28;20307;-68
2023/05/18 05:24:21;;;;;;;7.93;2.87;;;;;;;7.52;86.28;101394.28;5049633;28;20706;-67
2023/05/18 05:26:48;;;;;;;6.33;2.70;;;;;;;7.66;86.46;101400.16;5048174;28;20225;-68
2023/05/18 05:29:14;;;;;;;7.67;2.97;;;;;;;7.91;85.15;101389.75;5052944;28;20224;-68
2023/05/18 05:31:41;;;;;;;6.87;2.80;;;;;;;8.08;83.63;101393.06;5053060;28;20673;-67
2023/05/18 05:34:07;;;;;;;6.20;2.77;;;;;;;8.23;82.48;101393.66;5050411;28;20205;-68
2023/05/18 05:36:34;;;;;;;5.60;2.70;;;;;;;8.53;80.55;101398.38;5048312;28;20223;-68
2023/05/18 05:39:00;;;;;;;6.50;2.40;;;;;;;8.79;77.95;101400.22;5053249;28;20194;-66
2023/05/18 05:41:27;;;;;;;3.93;2.00;;;;;;;9.00;75.98;101401.00;5054376;28;20203;-67
2023/05/18 05:43:54;;;;;;;4.07;2.10;;;;;;;9.17;74.73;101405.97;5047607;28;20661;-68
2023/05/18 05:46:20;;;;;;;6.10;1.93;;;;;;;9.43;72.81;101406.03;5050782;28;20227;-67
2023/05/18 05:48:46;;;;;;;6.63;2.43;;;;;;;9.55;72.57;101404.66;5049688;28;20313;-69
2023/05/18 05:51:13;;;;;;;8.73;2.57;;;;;;;10.26;69.90;101396.44;5048174;28;20742;-67
2023/05/18 05:53:39;;;;;;;7.87;2.30;;;;;;;10.32;69.23;101395.72;5049679;28;20289;-66
2023/05/18 05:56:07;;;;;;;4.37;2.30;;;;;;;10.18;69.99;101395.28;5056340;28;20218;-68
2023/05/18 05:58:33;;;;;;;7.23;2.50;;;;;;;10.09;70.87;101400.28;5049700;28;20198;-67
2023/05/18 06:01:00;;;;;;;10.93;2.33;;;;;;;10.20;70.41;101404.19;5056425;28;20203;-67
2023/05/18 06:03:28;;;;;;;4.07;2.43;;;;;;;10.15;70.47;101403.13;5048662;28;20202;-69
2023/05/18 06:05:55;;;;;;;7.70;2.30;;;;;;;10.11;70.79;101406.53;5048569;28;20220;-67
2023/05/18 06:08:23;;;;;;;9.10;2.33;;;;;;;10.15;70.97;101413.72;5049045;28;20201;-68
2023/05/18 06:10:50;;;;;;;5.03;2.10;;;;;;;10.19;71.62;101417.34;5049609;28;20209;-68
2023/05/18 06:13:16;;;;;;;5.50;2.07;;;;;;;10.25;70.69;101420.22;5048228;28;20198;-68
2023/05/18 06:15:42;;;;;;;5.83;2.30;;;;;;;10.41;69.20;101411.91;5051985;28;20203;-67
2023/05/18 06:18:09;;;;;;;8.20;2.50;;;;;;;10.56;69.86;101412.38;5057356;28;20205;-68
2023/05/18 06:20:38;;;;;;;7.57;2.10;;;;;;;11.27;67.90;101417.91;5057666;28;20840;-67
2023/05/18 06:23:05;;;;;;;4.70;1.90;;;;;;;12.61;62.78;101409.69;5045275;28;20430;-68
2023/05/18 06:25:31;;;;;;;7.93;2.70;;;;;;;13.12;59.28;101410.75;5051109;28;20192;-67
2023/05/18 06:27:58;;;;;;;5.57;2.10;;;;;;;12.82;59.89;101423.44;5045674;28;20212;-67
2023/05/18 06:30:24;;;;;;;6.77;2.40;;;;;;;11.99;60.38;101415.34;5049530;28;20306;-67
2023/05/18 06:32:51;;;;;;;6.30;2.27;;;;;;;11.74;61.64;101418.25;5047451;28;20295;-67
2023/05/18 06:35:17;;;;;;;5.20;2.10;;;;;;;11.57;60.76;101429.31;5051403;28;20315;-66
2023/05/18 06:37:44;;;;;;;7.73;2.00;;;;;;;11.51;61.55;101422.97;5069004;28;20228;-67
2023/05/18 06:40:12;;;;;;;5.57;2.40;;;;;;;11.46;61.67;101416.63;5063884;28;20452;-67
2023/05/18 06:42:38;;;;;;;6.50;2.27;;;;;;;11.53;61.79;101421.25;5059013;28;20205;-67
2023/05/18 06:45:08;;;;;;;5.13;2.30;;;;;;;11.53;61.05;101416.84;5065959;28;20196;-67
2023/05/18 06:47:35;;;;;;;6.63;2.10;;;;;;;11.63;59.66;101418.00;5069804;28;20228;-67
2023/05/18 06:50:03;;;;;;;8.80;2.53;;;;;;;11.64;59.61;101417.13;5068873;28;20261;-66
2023/05/18 06:52:30;;;;;;;6.70;2.27;;;;;;;11.66;59.77;101415.41;5061062;28;20644;-67
2023/05/18 06:54:56;;;;;;;5.67;2.53;;;;;;;11.68;60.36;101426.06;5065707;28;20193;-67
2023/05/18 06:57:22;;;;;;;9.87;2.20;;;;;;;12.18;59.29;101417.59;5068417;28;20218;-67
2023/05/18 06:59:52;;;;;;;6.30;2.50;;;;;;;14.47;51.73;101426.41;5065905;28;20721;-67
2023/05/18 07:02:20;;;;;;;6.50;2.30;;;;;;;17.36;41.99;101422.63;5068434;28;20201;-67
2023/05/18 07:04:47;;;;;;;5.17;2.00;;;;;;;19.15;37.04;101415.25;5068392;28;20452;-67
2023/05/18 07:07:15;;;;;;;8.10;2.20;;;;;;;19.72;34.02;101427.47;5063941;28;20239;-68
2023/05/18 07:09:44;;;;;;;6.70;2.07;;;;;;;20.29;32.93;101426.06;5063402;28;20216;-69
2023/05/18 07:12:11;;;;;;;3.17;1.90;;;;;;;20.56;32.55;101435.69;5061184;28;20317;-75
2023/05/18 07:14:37;;;;;;;7.10;2.30;;;;;;;20.10;32.02;101427.16;5070112;28;20190;-75
2023/05/18 07:17:05;;;;;;;5.57;2.23;;;;;;;18.97;34.32;101429.66;5066838;28;20239;-77
2023/05/18 07:19:34;;;;;;;5.30;1.87;;;;;;;19.10;34.91;101436.75;5066131;28;20296;-74
2023/05/18 07:22:00;;;;;;;6.53;2.27;;;;;;;19.94;33.73;101437.13;5073271;28;20197;-74
2023/05/18 07:24:26;;;;;;;4.47;2.23;;;;;;;19.34;34.01;101428.59;5068027;28;20285;-75
2023/05/18 07:26:53;;;;;;;9.73;2.40;;;;;;;19.41;34.04;101433.00;5066578;28;20221;-76
2023/05/18 07:29:19;;;;;;;4.40;1.97;;;;;;;20.32;33.08;101436.78;5072732;28;20220;-74
2023/05/18 07:31:46;;;;;;;6.23;2.13;;;;;;;20.10;32.98;101426.25;5070787;28;20394;-77
2023/05/18 07:34:12;;;;;;;6.07;2.10;;;;;;;19.82;31.99;101426.47;5056276;28;20208;-77
2023/05/18 07:36:39;;;;;;;5.97;2.10;;;;;;;19.82;33.15;101420.22;5051569;28;20755;-76
2023/05/18 07:39:05;;;;;;;6.67;2.13;;;;;;;19.09;34.05;101427.81;5068881;28;20192;-75
2023/05/18 07:41:32;;;;;;;7.43;2.30;;;;;;;19.01;34.29;101428.75;5066218;28;20249;-76
2023/05/18 07:43:58;;;;;;;9.20;2.57;;;;;;;18.37;36.44;101427.13;5064334;28;20200;-78
2023/05/18 07:46:25;;;;;;;9.30;3.10;;;;;;;18.36;36.92;101419.97;5071573;28;20309;-74
2023/05/18 07:48:51;;;;;;;6.67;2.40;;;;;;;18.96;36.53;101425.19;5067261;28;20222;-77
2023/05/18 07:51:17;;;;;;;5.73;2.37;;;;;;;19.61;35.13;101410.50;5050219;28;21152;-81
2023/05/18 07:53:45;;;;;;;6.60;1.90;;;;;;;20.27;33.56;101413.53;5060075;28;20645;-77
2023/05/18 07:56:12;;;;;;;5.47;2.20;;;;;;;19.29;35.17;101416.09;5065432;28;20736;-77
2023/05/18 07:58:39;;;;;;;6.63;2.37;;;;;;;18.14;36.63;101420.91;5069918;28;20554;-78
2023/05/18 08:01:05;;;;;;;8.53;2.37;;;;;;;18.07;37.88;101412.00;5072164;28;20202;-75
2023/05/18 08:03:32;;;;;;;4.97;2.40;;;;;;;18.09;37.87;101410.19;5073568;28;20190;-70
2023/05/18 08:05:59;;;;;;;6.40;2.43;;;;;;;18.41;36.69;101411.91;5069363;28;20221;-71
2023/05/18 08:08:26;;;;;;;6.53;2.47;;;;;;;18.52;37.00;101409.22;5071652;28;21047;-71
2023/05/18 08:10:52;;;;;;;5.40;2.43;;;;;;;17.79;38.32;101415.56;5066059;28;20225;-67
2023/05/18 08:13:18;;;;;;;6.50;2.10;;;;;;;17.18;39.67;101415.41;5065438;28;20243;-72
2023/05/18 08:15:45;;;;;;;6.07;2.60;;;;;;;16.92;39.73;101410.00;5067765;28;20204;-70
2023/05/18 08:18:18;;;;;;;4.07;2.10;;;;;;;17.08;40.58;101419.84;5067988;28;22229;-68
2023/05/18 08:20:45;;;;;;;6.00;2.10;;;;;;;16.81;40.34;101414.38;5070310;28;20197;-69
2023/05/18 08:23:11;;;;;;;7.13;2.17;;;;;;;16.85;41.53;101414.44;5067308;28;20194;-68
2023/05/18 08:25:38;;;;;;;4.70;2.23;;;;;;;16.39;41.80;101423.94;5065545;28;20488;-68
2023/05/18 08:28:04;;;;;;;5.20;2.30;;;;;;;16.23;41.33;101404.25;5063230;28;20214;-71
2023/05/18 08:30:30;;;;;;;8.27;2.40;;;;;;;16.12;42.62;101405.06;5068536;28;20735;-68
2023/05/18 08:32:57;;;;;;;11.03;2.23;;;;;;;15.77;43.50;101407.47;5068026;28;20202;-68
2023/05/18 08:35:23;;;;;;;5.97;2.53;;;;;;;15.54;43.79;101402.75;5068010;28;20194;-69
2023/05/18 08:37:50;;;;;;;8.37;2.47;;;;;;;15.10;44.80;101401.41;5064002;28;20248;-69
2023/05/18 08:40:16;;;;;;;7.27;2.20;;;;;;;14.93;44.16;101403.91;5066093;28;20198;-68
2023/05/18 08:43:02;;;;;;;6.80;2.57;;;;;;;14.89;45.68;101402.09;5067479;28;20686;-73
2023/05/18 08:45:31;;;;;;;6.40;2.27;;;;;;;14.93;46.50;101398.56;5065594;28;20241;-70
2023/05/18 08:48:00;;;;;;;5.90;2.47;;;;;;;15.27;46.29;101397.19;5067031;28;20230;-70
2023/05/18 08:50:30;;;;;;;6.00;2.03;;;;;;;15.39;44.91;101385.72;5065893;28;20295;-70
2023/05/18 08:53:00;;;;;;;8.37;2.97;;;;;;;15.46;45.00;101391.13;5065318;28;20228;-70
2023/05/18 08:55:28;;;;;;;5.43;2.70;;;;;;;15.46;44.76;101400.91;5063949;28;20208;-69
2023/05/18 08:57:58;;;;;;;9.30;2.73;;;;;;;15.52;45.21;101398.28;5064912;28;20222;-70
2023/05/18 09:00:25;;;;;;;4.50;2.20;;;;;;;15.63;44.62;101407.34;5064604;28;20202;-69
2023/05/18 09:02:53;;;;;;;5.30;2.23;;;;;;;15.69;44.74;101380.69;5062566;28;20677;-67
2023/05/18 09:05:21;;;;;;;5.10;2.00;;;;;;;15.89;44.39;101386.19;5064282;28;20198;-70
2023/05/18 09:07:49;;;;;;;6.03;2.47;;;;;;;15.76;43.60;101392.31;5062521;28;20316;-68
2023/05/18 09:10:17;;;;;;;10.27;3.80;;;;;;;15.45;43.38;101385.78;5066949;28;20280;-68
2023/05/18 09:12:46;;;;;;;6.47;2.17;;;;;;;15.62;44.97;101385.09;5063495;28;20200;-67
2023/05/18 09:15:15;;;;;;;5.93;2.37;;;;;;;15.55;43.95;101382.28;5049260;28;20214;-68
2023/05/18 09:17:42;;;;;;;7.77;2.57;;;;;;;15.90;44.31;101379.97;5065243;28;20744;-70
2023/05/18 09:20:09;;;;;;;8.60;2.77;;;;;;;16.28;44.35;101378.44;5068573;28;20743;-70
2023/05/18 09:22:35;;;;;;;7.67;2.40;;;;;;;16.46;43.58;101383.00;5064111;28;20191;-69
2023/05/18 09:25:02;;;;;;;7.53;2.40;;;;;;;16.65;44.35;101375.06;5067948;28;20225;-67
2023/05/18 09:27:29;;;;;;;9.13;2.80;;;;;;;16.37;41.53;101387.38;5062352;28;20218;-70
2023/05/18 09:29:57;;;;;;;4.77;2.47;;;;;;;15.97;42.73;101382.69;5066750;28;20313;-69
2023/05/18 09:32:25;;;;;;;6.10;2.30;;;;;;;15.85;43.49;101379.94;5066138;28;20551;-70
2023/05/18 09:34:52;;;;;;;5.23;2.37;;;;;;;15.81;43.06;101377.22;5066574;28;20194;-69
2023/05/18 09:37:19;;;;;;;7.20;2.63;;;;;;;15.88;42.07;101377.28;5062530;28;20779;-69
2023/05/18 09:40:00;;;;;;;6.17;2.47;;;;;;;16.14;43.45;101376.56;5064770;28;20636;-69
2023/05/18 09:42:42;;;;;;;7.63;2.50;;;;;;;16.67;42.41;101378.66;5064713;28;20284;-69
2023/05/18 09:45:09;;;;;;;6.97;2.47;;;;;;;16.97;41.16;101376.13;5063727;28;20573;-68
2023/05/18 09:47:35;;;;;;;6.93;2.63;;;;;;;16.60;40.50;101377.72;5065560;28;20252;-68
2023/05/18 09:50:02;;;;;;;5.07;2.40;;;;;;;16.66;41.63;101387.59;5065536;28;20235;-69
2023/05/18 09:52:28;;;;;;;6.93;2.63;;;;;;;16.87;40.95;101367.16;5063450;28;20293;-69
2023/05/18 09:54:59;;;;;;;5.87;2.13;;;;;;;17.28;41.88;101366.38;5066034;28;20210;-70
2023/05/18 09:57:26;;;;;;;7.53;2.70;;;;;;;17.33;39.99;101374.41;5064342;28;20222;-71
2023/05/18 10:00:02;;;;;;;7.33;2.43;;;;;;;17.27;38.56;101371.72;5039203;28;20199;-69
2023/05/18 10:02:29;;;;;;;8.77;2.37;;;;;;;17.35;39.27;101360.13;5054643;28;20197;-70
2023/05/18 10:04:56;;;;;;;6.93;2.33;;;;;;;17.20;39.12;101365.44;5062204;28;20708;-70
2023/05/18 10:07:22;;;;;;;6.20;2.10;;;;;;;17.43;40.02;101344.06;5061246;28;20221;-69
2023/05/18 10:10:00;;;;;;;7.40;2.60;;;;;;;18.10;38.47;101338.72;5060614;28;20235;-69
2023/05/18 10:12:26;;;;;;;6.30;2.83;;;;;;;17.76;36.99;101359.28;5067722;28;20205;-69
2023/05/18 10:14:53;;;;;;;5.70;2.60;;;;;;;17.21;37.90;101338.72;5067902;28;20194;-70
2023/05/18 10:17:20;;;;;;;6.97;3.17;;;;;;;17.46;38.64;101344.06;5065237;28;20218;-69
2023/05/18 10:19:50;;;;;;;6.27;2.90;;;;;;;17.78;35.18;101331.59;5065987;28;20205;-70
2023/05/18 10:22:18;;;;;;;9.93;2.70;;;;;;;17.85;34.61;101338.72;5063495;28;20209;-71
2023/05/18 10:24:50;;;;;;;7.17;2.60;;;;;;;17.36;34.77;101336.94;5068668;28;20602;-71
2023/05/18 10:27:22;;;;;;;5.43;2.27;;;;;;;17.63;35.75;101339.63;5055515;28;20611;-69
2023/05/18 10:29:51;;;;;;;7.67;2.43;;;;;;;17.77;36.98;101334.28;5044820;28;20212;-69
2023/05/18 10:32:19;;;;;;;5.53;2.30;;;;;;;17.84;35.81;101334.28;5062920;28;20213;-71
2023/05/18 10:34:46;;;;;;;6.47;2.50;;;;;;;17.99;34.77;101325.31;5061159;28;20296;-69
2023/05/18 10:37:15;;;;;;;8.73;2.63;;;;;;;18.28;35.11;101327.91;5062342;28;20304;-70
2023/05/18 10:39:44;;;;;;;8.17;2.70;;;;;;;18.57;34.04;101318.88;5065985;28;20198;-69
2023/05/18 10:42:12;;;;;;;6.90;2.80;;;;;;;18.20;34.86;101323.47;5059357;28;20219;-67
2023/05/18 10:44:39;;;;;;;9.93;2.80;;;;;;;18.11;35.41;101324.41;5067842;28;20570;-69
2023/05/18 10:47:07;;;;;;;6.37;2.23;;;;;;;18.36;35.33;101322.53;5065451;28;20716;-69
2023/05/18 10:49:35;;;;;;;5.83;2.60;;;;;;;18.51;34.47;101317.13;5060704;28;20217;-69
2023/05/18 10:52:02;;;;;;;8.30;2.77;;;;;;;18.71;34.13;101317.94;5061344;28;20214;-70
2023/05/18 10:54:29;;;;;;;5.13;2.50;;;;;;;18.97;33.76;101315.13;5067049;28;20548;-70
2023/05/18 10:56:55;;;;;;;6.33;2.70;;;;;;;18.45;34.42;101323.41;5069267;28;20222;-69
2023/05/18 10:59:22;;;;;;;6.13;2.73;;;;;;;18.63;35.81;101324.25;5057396;28;20219;-69
2023/05/18 11:01:52;;;;;;;5.27;2.50;;;;;;;18.48;33.66;101320.72;5062297;28;20201;-69
2023/05/18 11:04:23;;;;;;;6.30;2.30;;;;;;;18.55;35.94;101309.94;5040320;28;20198;-70
2023/05/18 11:06:56;;;;;;;6.13;2.40;;;;;;;18.53;33.48;101309.06;5050964;28;20268;-69
2023/05/18 11:09:23;;;;;;;6.30;2.37;;;;;;;18.74;34.12;101311.66;5057700;28;20199;-68
2023/05/18 11:11:56;;;;;;;8.53;2.70;;;;;;;18.98;33.26;101310.63;5054713;28;20222;-69
2023/05/18 11:14:27;;;;;;;5.40;2.60;;;;;;;19.02;34.66;101296.28;5063482;28;20285;-69
2023/05/18 11:17:15;;;;;;;8.07;2.40;;;;;;;18.27;33.73;101307.34;5060321;28;20224;-69
2023/05/18 11:20:17;;;;;;;7.60;2.50;;;;;;;18.32;36.54;101305.56;5057732;28;20664;-69
2023/05/18 11:22:51;;;;;;;5.50;2.20;;;;;;;18.50;36.63;101296.56;4942036;29;20237;-69
2023/05/18 11:25:36;;;;;;;6.47;2.53;;;;;;;18.69;35.39;101294.69;5047380;28;20234;-69
2023/05/18 11:28:09;;;;;;;7.90;2.63;;;;;;;18.35;35.15;101296.59;5059343;28;20202;-69
2023/05/18 11:30:35;;;;;;;6.93;2.50;;;;;;;18.57;36.05;101286.69;5060169;28;20276;-69
2023/05/18 11:33:12;;;;;;;4.43;2.33;;;;;;;18.49;34.66;101289.41;5060202;28;20768;-69